Pine Springs, Minnesota
Current Conditions -  °F | °C
As of 5:10 AM on Friday 28 Nov 2014 (Local Time) from K21D Reporting Station
Overcast Overcast  
Wind Chill:   Ceiling: 8000
Heat Index: 14°   Visibility: 10mi
Dew Point:   Wind: 6mph
Humidity: 79%   Direction: 140°SE
Pressure: 30.06"   Gusts: NA
Location:  44.9915°N, 92.9659°W
Report Text: K21D 281110Z AUTO 14005KT 10SM OVC080 M10/M13 A3006 RMK AO2
Loading
Personal Weather Stations






























Interactive Weather Map New forecast layout! Learn more

10-Day Weather Forecast

Advertisements
Track Severe Weather on mobile